createdAt,value
2022-09-28T00:00:33.362Z,15.23
2022-09-28T00:05:37.484Z,15.22
2022-09-28T00:10:43.245Z,15.23
2022-09-28T00:15:45.938Z,15.21
2022-09-28T00:20:49.997Z,15.20
2022-09-28T00:25:52.707Z,15.21
2022-09-28T00:30:56.866Z,15.22
2022-09-28T00:36:01.031Z,15.20
2022-09-28T00:41:05.363Z,15.18
2022-09-28T00:46:13.515Z,15.18
2022-09-28T00:51:17.673Z,15.13
2022-09-28T00:56:22.083Z,15.19
2022-09-28T01:01:24.855Z,15.12
2022-09-28T01:06:33.115Z,15.09
2022-09-28T01:11:38.039Z,15.12
2022-09-28T01:16:45.347Z,15.13
2022-09-28T01:22:12.687Z,15.12
2022-09-28T01:27:21.444Z,15.08
2022-09-28T01:32:30.522Z,15.09
2022-09-28T01:37:45.689Z,15.09
2022-09-28T01:42:51.546Z,15.09
2022-09-28T01:47:58.181Z,15.10
2022-09-28T01:53:05.486Z,15.08
2022-09-28T01:58:13.480Z,15.02
2022-09-28T02:03:17.709Z,15.01
2022-09-28T02:08:33.108Z,14.99
2022-09-28T02:13:40.614Z,14.98
2022-09-28T02:18:45.240Z,14.94
2022-09-28T02:23:54.008Z,14.96
2022-09-28T02:28:58.147Z,14.96
2022-09-28T02:34:00.843Z,14.93
2022-09-28T02:39:03.762Z,14.88
2022-09-28T02:44:17.963Z,14.88
2022-09-28T02:49:28.405Z,14.91
2022-09-28T02:54:40.257Z,14.91
2022-09-28T02:59:51.527Z,14.85
2022-09-28T03:05:11.792Z,14.90
2022-09-28T03:10:18.094Z,14.88
2022-09-28T03:15:24.342Z,14.86
2022-09-28T03:20:28.737Z,14.81
2022-09-28T03:25:31.801Z,14.83
2022-09-28T03:30:35.953Z,14.82
2022-09-28T03:35:38.703Z,14.79
2022-09-28T03:40:41.419Z,14.81
2022-09-28T03:45:52.816Z,14.80
2022-09-28T03:50:56.214Z,14.79
2022-09-28T03:56:03.805Z,14.77
2022-09-28T04:01:16.556Z,14.79
2022-09-28T04:06:21.074Z,14.78
2022-09-28T04:11:24.132Z,14.78
2022-09-28T04:16:28.511Z,14.77
2022-09-28T04:21:41.878Z,14.74
2022-09-28T04:26:48.470Z,14.74
2022-09-28T04:31:55.121Z,14.73
2022-09-28T04:37:08.079Z,14.70
2022-09-28T04:42:11.138Z,14.71
2022-09-28T04:47:16.233Z,14.70
2022-09-28T04:52:41.591Z,14.69
2022-09-28T04:57:44.469Z,14.65
2022-09-28T05:02:48.615Z,14.66
2022-09-28T05:08:23.484Z,14.65
2022-09-28T05:13:26.429Z,14.62
2022-09-28T05:18:31.002Z,14.64
2022-09-28T05:23:38.614Z,14.63
2022-09-28T05:28:41.982Z,14.61
2022-09-28T05:34:15.132Z,14.62
2022-09-28T05:39:18.213Z,14.62
2022-09-28T05:44:21.292Z,14.61
2022-09-28T05:49:29.074Z,14.60
2022-09-28T05:54:31.951Z,14.60
2022-09-28T05:59:36.078Z,14.60
2022-09-28T06:04:40.108Z,14.63
2022-09-28T06:09:42.917Z,14.58
2022-09-28T06:15:08.106Z,14.61
2022-09-28T06:20:12.741Z,14.61
2022-09-28T06:25:44.207Z,14.60
2022-09-28T06:30:48.169Z,14.58
2022-09-28T06:35:54.998Z,14.58
2022-09-28T06:40:58.825Z,14.58
2022-09-28T06:46:02.177Z,14.59
2022-09-28T06:51:25.007Z,14.60
2022-09-28T06:56:37.053Z,14.57
2022-09-28T07:01:39.887Z,14.59
2022-09-28T07:06:54.209Z,14.59
2022-09-28T07:12:20.133Z,14.59
2022-09-28T07:17:56.957Z,14.58
2022-09-28T07:23:17.485Z,14.57
2022-09-28T07:28:55.710Z,14.59
2022-09-28T07:34:18.615Z,14.58
2022-09-28T07:39:56.935Z,14.59
2022-09-28T07:44:59.682Z,14.61
2022-09-28T07:50:02.469Z,14.65
2022-09-28T07:55:22.028Z,14.64
2022-09-28T08:00:48.118Z,14.64
2022-09-28T08:05:51.758Z,14.64
2022-09-28T08:16:39.448Z,14.72
2022-09-28T08:21:52.580Z,14.76
2022-09-28T08:26:58.370Z,14.77
2022-09-28T08:32:04.495Z,14.79
2022-09-28T08:37:10.496Z,14.79
2022-09-28T08:42:32.640Z,14.80
2022-09-28T08:48:11.194Z,14.78
2022-09-28T08:53:53.677Z,14.80
2022-09-28T08:59:09.009Z,14.77
2022-09-28T09:04:13.706Z,14.75
2022-09-28T09:09:46.460Z,14.71
2022-09-28T09:15:29.427Z,14.73
2022-09-28T09:20:40.639Z,14.72
2022-09-28T09:26:07.131Z,14.73
2022-09-28T09:31:22.898Z,14.71
2022-09-28T09:36:36.459Z,14.76
2022-09-28T09:42:15.668Z,14.77
2022-09-28T09:47:40.658Z,14.78
2022-09-28T09:52:59.284Z,14.77
2022-09-28T09:58:09.888Z,14.78
2022-09-28T10:03:23.475Z,14.78
2022-09-28T10:08:29.478Z,14.80
2022-09-28T10:13:32.854Z,14.84
2022-09-28T10:18:40.356Z,14.90
2022-09-28T10:23:46.533Z,14.94
2022-09-28T10:28:54.301Z,14.90
2022-09-28T10:33:59.028Z,14.90
2022-09-28T10:39:01.833Z,14.90
2022-09-28T10:44:08.641Z,14.94
2022-09-28T10:49:47.236Z,14.97
2022-09-28T10:54:54.351Z,14.99
2022-09-28T10:59:58.754Z,14.97
2022-09-28T11:05:04.079Z,14.98
2022-09-28T11:10:20.732Z,15.03
2022-09-28T11:15:27.824Z,15.10
2022-09-28T11:20:35.905Z,15.13
2022-09-28T11:25:42.314Z,15.16
2022-09-28T11:30:48.291Z,15.15
2022-09-28T11:36:14.924Z,15.15
2022-09-28T11:41:38.179Z,15.14
2022-09-28T11:46:46.628Z,15.12
2022-09-28T11:51:50.967Z,15.17
2022-09-28T11:56:54.210Z,15.20
2022-09-28T12:01:58.953Z,15.21
2022-09-28T12:07:19.232Z,15.20
2022-09-28T12:12:30.552Z,15.20
2022-09-28T12:17:38.115Z,15.19
2022-09-28T12:22:44.334Z,15.19
2022-09-28T12:27:51.583Z,15.17
2022-09-28T12:32:57.316Z,15.22
2022-09-28T12:38:22.505Z,15.22
2022-09-28T12:43:48.120Z,15.22
2022-09-28T12:49:56.295Z,15.18
2022-09-28T12:54:42.868Z,15.14
2022-09-28T12:59:52.959Z,15.20
2022-09-28T13:05:07.791Z,15.29
2022-09-28T13:10:18.467Z,15.32
2022-09-28T13:15:36.192Z,15.36
2022-09-28T13:21:00.061Z,15.43
2022-09-28T13:26:13.868Z,15.45
2022-09-28T13:31:20.813Z,15.45
2022-09-28T13:36:42.522Z,15.45
2022-09-28T13:41:50.597Z,15.46
2022-09-28T13:47:02.709Z,15.46
2022-09-28T13:52:07.988Z,15.46
2022-09-28T13:57:19.652Z,15.44
2022-09-28T14:02:31.869Z,15.46
2022-09-28T14:07:57.445Z,15.49
2022-09-28T14:13:04.139Z,15.51
2022-09-28T14:18:24.667Z,15.51
2022-09-28T14:24:16.414Z,15.52
2022-09-28T14:29:28.501Z,15.57
2022-09-28T14:34:34.320Z,15.59
2022-09-28T14:39:55.707Z,15.54
2022-09-28T14:45:35.759Z,15.56
2022-09-28T14:50:38.914Z,15.56
2022-09-28T14:55:51.248Z,15.53
2022-09-28T15:01:01.337Z,15.52
2022-09-28T15:06:04.011Z,15.56
2022-09-28T15:11:07.324Z,15.64
2022-09-28T15:16:14.341Z,15.66
2022-09-28T15:21:17.313Z,15.67
2022-09-28T15:26:24.111Z,15.67
2022-09-28T15:31:29.423Z,15.66
2022-09-28T15:36:33.907Z,15.66
2022-09-28T15:41:36.742Z,15.64
2022-09-28T15:46:42.913Z,15.60
2022-09-28T15:51:48.621Z,15.60
2022-09-28T15:56:53.560Z,15.55
2022-09-28T16:02:14.100Z,15.50
2022-09-28T16:07:36.103Z,15.47
2022-09-28T16:12:46.516Z,15.40
2022-09-28T16:17:56.112Z,15.41
2022-09-28T16:23:05.569Z,15.34
2022-09-28T16:28:13.173Z,15.30
2022-09-28T16:33:30.086Z,15.28
2022-09-28T16:38:32.820Z,15.24
2022-09-28T16:43:36.532Z,15.21
2022-09-28T16:48:48.415Z,15.16
2022-09-28T16:54:08.610Z,15.12
2022-09-28T16:59:13.792Z,15.08
2022-09-28T17:04:18.593Z,15.06
2022-09-28T17:09:22.161Z,15.05
2022-09-28T17:14:25.120Z,15.03
2022-09-28T17:19:30.825Z,15.01
2022-09-28T17:24:33.557Z,14.99
2022-09-28T17:29:36.265Z,14.96
2022-09-28T17:34:40.444Z,14.95
2022-09-28T17:39:43.175Z,14.96
2022-09-28T17:44:45.975Z,14.91
2022-09-28T17:49:51.364Z,14.90
2022-09-28T17:54:54.064Z,14.87
2022-09-28T17:59:56.726Z,14.87
2022-09-28T18:05:01.021Z,14.85
2022-09-28T18:10:03.738Z,14.82
2022-09-28T18:15:07.157Z,14.84
2022-09-28T18:20:12.588Z,14.81
2022-09-28T18:25:15.341Z,14.79
2022-09-28T18:30:18.266Z,14.77
2022-09-28T18:35:23.378Z,14.76
2022-09-28T18:40:26.329Z,14.80
2022-09-28T18:45:29.138Z,14.76
2022-09-28T18:50:34.300Z,14.76
2022-09-28T18:55:37.132Z,14.74
2022-09-28T19:00:40.440Z,14.72
2022-09-28T19:05:46.197Z,14.67
2022-09-28T19:10:49.182Z,14.68
2022-09-28T19:15:51.894Z,14.63
2022-09-28T19:20:55.928Z,14.60
2022-09-28T19:25:58.780Z,14.58
2022-09-28T19:31:03.258Z,14.57
2022-09-28T19:36:09.404Z,14.54
2022-09-28T19:41:13.829Z,14.54
2022-09-28T19:46:16.623Z,14.51
2022-09-28T19:51:20.644Z,14.50
2022-09-28T19:56:23.537Z,14.44
2022-09-28T20:01:26.336Z,14.47
2022-09-28T20:06:31.903Z,14.46
2022-09-28T20:11:35.834Z,14.45
2022-09-28T20:16:39.198Z,14.46
2022-09-28T20:21:43.691Z,14.47
2022-09-28T20:26:47.001Z,14.47
2022-09-28T20:31:49.768Z,14.48
2022-09-28T20:36:53.871Z,14.48
2022-09-28T20:42:22.043Z,14.50
2022-09-28T20:47:24.935Z,14.49
2022-09-28T20:52:28.990Z,14.48
2022-09-28T20:57:32.034Z,14.48
2022-09-28T21:02:34.761Z,14.43
2022-09-28T21:07:38.854Z,14.43
2022-09-28T21:12:41.889Z,14.40
2022-09-28T21:17:44.587Z,14.41
2022-09-28T21:22:48.616Z,14.38
2022-09-28T21:27:51.541Z,14.37
2022-09-28T21:32:54.169Z,14.34
2022-09-28T21:37:58.313Z,14.34
2022-09-28T21:43:01.556Z,14.33
2022-09-28T21:48:04.251Z,14.31
2022-09-28T21:53:08.263Z,14.29
2022-09-28T21:58:10.964Z,14.28
2022-09-28T22:03:13.763Z,14.29
2022-09-28T22:08:17.825Z,14.27
2022-09-28T22:13:20.801Z,14.26
2022-09-28T22:18:23.489Z,14.26
2022-09-28T22:23:27.612Z,14.22
2022-09-28T22:28:30.457Z,14.21
2022-09-28T22:33:34.040Z,14.23
2022-09-28T22:38:38.262Z,14.21
2022-09-28T22:43:40.895Z,14.23
2022-09-28T22:48:47.558Z,14.23
2022-09-28T22:53:51.659Z,14.22
2022-09-28T22:58:54.410Z,14.21
2022-09-28T23:03:58.027Z,14.19
2022-09-28T23:09:02.180Z,14.20
2022-09-28T23:14:04.982Z,14.17
2022-09-28T23:19:07.637Z,14.14
2022-09-28T23:24:12.065Z,14.16
2022-09-28T23:29:14.796Z,14.15
2022-09-28T23:34:17.641Z,14.16
2022-09-28T23:39:21.823Z,14.15
2022-09-28T23:44:25.347Z,14.15
2022-09-28T23:49:28.562Z,14.15
2022-09-28T23:54:32.650Z,14.12
2022-09-28T23:59:35.529Z,14.12
